Time;durP1;ratioP1;P1;durP2;ratioP2;P2;SDS_P1;SDS_P2;PMS_P1;PMS_P2;Temp;Humidity;BMP_temperature;BMP_pressure;BME280_temperature;BME280_humidity;BME280_pressure;Samples;Min_cycle;Max_cycle;Signal;HPM_P1;HPM_P2
2021/09/05 00:01:34;;;;;;;;;8.25;8.25;;;;;13.94;67.31;101431.78;4843329;29;9862;-88
2021/09/05 00:04:29;;;;;;;;;11.00;11.00;;;;;13.92;67.55;101426.56;4832288;29;10110;-89
2021/09/05 00:07:25;;;;;;;;;12.50;12.50;;;;;13.89;67.80;101424.47;4844130;29;9847;-87
2021/09/05 00:10:20;;;;;;;;;11.50;11.50;;;;;13.87;67.61;101421.19;4844571;29;9846;-88
2021/09/05 00:13:16;;;;;;;;;14.50;14.50;;;;;13.76;68.36;101428.28;4831396;29;10129;-87
2021/09/05 00:16:12;;;;;;;;;10.00;10.00;;;;;13.71;67.83;101432.06;4831352;29;9968;-88
2021/09/05 00:19:07;;;;;;;;;16.25;16.25;;;;;13.70;68.04;101424.88;4842550;29;10040;-88
2021/09/05 00:22:03;;;;;;;;;13.25;13.25;;;;;13.69;68.12;101430.78;4842548;29;10088;-87
2021/09/05 00:24:59;;;;;;;;;11.00;11.00;;;;;13.61;68.63;101435.22;4842437;29;10018;-88
2021/09/05 00:27:54;;;;;;;;;14.50;14.50;;;;;13.56;68.59;101432.63;4842685;29;9923;-87
2021/09/05 00:30:50;;;;;;;;;15.25;13.25;;;;;13.59;69.28;101431.97;4844404;29;10280;-87
2021/09/05 00:33:45;;;;;;;;;12.25;12.25;;;;;13.38;69.82;101442.16;4842224;29;10009;-87
2021/09/05 00:36:41;;;;;;;;;16.00;14.50;;;;;13.24;70.60;101440.41;4842784;29;10107;-86
2021/09/05 00:39:36;;;;;;;;;13.50;13.25;;;;;13.29;70.63;101434.69;4854179;29;10111;-87
2021/09/05 00:42:32;;;;;;;;;19.25;18.00;;;;;13.30;70.34;101441.84;4860603;29;10338;-86
2021/09/05 00:45:28;;;;;;;;;15.75;15.75;;;;;13.46;70.08;101444.91;4848860;29;10474;-87
2021/09/05 00:48:23;;;;;;;;;18.00;18.00;;;;;13.31;69.77;101440.72;4860545;29;10335;-87
2021/09/05 00:51:22;;;;;;;;;20.00;20.00;;;;;13.11;70.78;101444.16;4848831;29;10587;-87
2021/09/05 00:54:18;;;;;;;;;23.75;21.75;;;;;12.99;71.17;101447.63;4860238;29;11404;-86
2021/09/05 00:57:16;;;;;;;;;20.00;20.00;;;;;13.01;71.38;101450.06;4848249;29;10755;-88
2021/09/05 01:00:13;;;;;;;;;21.75;21.00;;;;;12.95;71.91;101454.94;4848672;29;10712;-88
2021/09/05 01:03:09;;;;;;;;;24.00;23.00;;;;;12.83;72.03;101459.56;4834683;29;10878;-87
2021/09/05 01:06:04;;;;;;;;;23.75;23.25;;;;;12.76;72.17;101458.09;4830119;29;10817;-88
2021/09/05 01:09:01;;;;;;;;;26.00;26.00;;;;;12.85;72.33;101462.81;4843418;29;10861;-87
2021/09/05 01:11:58;;;;;;;;;31.25;31.00;;;;;12.80;71.96;101466.56;4831825;29;10801;-87
2021/09/05 01:14:54;;;;;;;;;31.75;31.25;;;;;12.87;71.73;101464.09;4853257;29;11091;-88
2021/09/05 01:17:50;;;;;;;;;33.00;32.00;;;;;12.85;72.44;101471.13;4843126;29;11087;-86
2021/09/05 01:20:45;;;;;;;;;32.75;32.00;;;;;12.79;72.65;101470.47;4830158;29;10992;-85
2021/09/05 01:23:41;;;;;;;;;40.75;35.00;;;;;12.78;72.78;101478.00;4847282;29;10958;-86
2021/09/05 01:26:39;;;;;;;;;40.50;37.25;;;;;12.92;71.84;101477.84;4859770;29;11184;-86
2021/09/05 01:29:35;;;;;;;;;39.25;33.50;;;;;12.80;72.33;101477.66;4861107;29;11058;-85
2021/09/05 01:32:30;;;;;;;;;23.25;22.50;;;;;12.74;72.63;101485.34;4845385;29;10950;-86
2021/09/05 01:35:26;;;;;;;;;41.25;38.25;;;;;12.64;72.93;101482.88;4841706;29;11176;-86
2021/09/05 01:38:22;;;;;;;;;40.25;37.75;;;;;12.80;72.24;101486.84;4841520;29;11282;-88
2021/09/05 01:41:17;;;;;;;;;35.75;34.00;;;;;12.54;73.44;101485.97;4854868;29;11308;-86
2021/09/05 01:44:17;;;;;;;;;46.50;39.00;;;;;12.61;73.35;101485.50;4847301;29;11509;-88
2021/09/05 01:47:12;;;;;;;;;46.25;36.50;;;;;12.63;72.95;101483.22;4830100;29;11718;-87
2021/09/05 01:50:09;;;;;;;;;37.75;35.25;;;;;12.66;72.37;101490.91;4829705;29;11385;-87
2021/09/05 01:53:04;;;;;;;;;42.25;38.00;;;;;12.68;72.19;101486.66;4849893;29;12152;-89
2021/09/05 01:56:00;;;;;;;;;42.25;37.50;;;;;12.58;72.22;101497.28;4839398;29;11271;-87
2021/09/05 01:58:57;;;;;;;;;36.00;35.25;;;;;12.59;72.11;101502.50;4859693;29;11191;-87
2021/09/05 02:01:53;;;;;;;;;41.75;38.00;;;;;12.53;72.79;101499.03;4848698;29;11115;-88
2021/09/05 02:04:48;;;;;;;;;41.50;36.25;;;;;12.46;72.88;101498.69;4831228;29;11453;-86
2021/09/05 02:07:44;;;;;;;;;43.50;34.00;;;;;12.49;73.05;101502.78;4828765;29;11396;-87
2021/09/05 02:10:39;;;;;;;;;31.50;30.25;;;;;12.58;72.71;101508.38;4829635;29;11217;-88
2021/09/05 02:13:35;;;;;;;;;42.50;38.00;;;;;12.47;72.47;101508.66;4841848;29;11665;-88
2021/09/05 02:16:31;;;;;;;;;31.25;31.25;;;;;12.43;72.96;101509.66;4829774;29;11693;-90
2021/09/05 02:19:27;;;;;;;;;36.50;34.00;;;;;12.50;72.97;101513.56;4830336;29;11262;-88
2021/09/05 02:22:23;;;;;;;;;38.25;36.75;;;;;12.42;73.36;101516.31;4829447;29;11512;-88
2021/09/05 02:25:18;;;;;;;;;32.75;31.50;;;;;12.45;73.09;101524.00;4851855;29;11066;-87
2021/09/05 02:28:14;;;;;;;;;40.50;37.75;;;;;12.41;73.51;101517.44;4841490;29;11453;-87
2021/09/05 02:31:09;;;;;;;;;36.50;35.00;;;;;12.39;73.21;101519.75;4852161;29;11472;-87
2021/09/05 02:34:05;;;;;;;;;38.50;36.00;;;;;12.33;73.69;101521.03;4858762;29;11311;-86
2021/09/05 02:37:01;;;;;;;;;32.50;29.25;;;;;12.27;73.53;101525.94;4859821;29;11347;-88
2021/09/05 02:39:56;;;;;;;;;38.75;36.50;;;;;12.30;73.60;101532.78;4831133;29;11310;-85
2021/09/05 02:42:52;;;;;;;;;35.50;33.75;;;;;12.18;73.95;101525.88;4841226;29;11688;-86
2021/09/05 02:45:47;;;;;;;;;36.50;35.50;;;;;12.09;73.93;101536.13;4841105;29;11371;-86
2021/09/05 02:48:43;;;;;;;;;45.00;38.00;;;;;12.25;73.98;101536.50;4828906;29;11594;-85
2021/09/05 02:51:40;;;;;;;;;34.25;33.75;;;;;12.08;74.34;101536.44;4838815;29;11682;-85
2021/09/05 02:54:39;;;;;;;;;43.00;37.25;;;;;12.01;74.48;101539.69;4848476;29;11270;-86
2021/09/05 02:57:35;;;;;;;;;41.75;37.00;;;;;12.07;73.88;101545.91;4847128;29;11473;-85
2021/09/05 03:00:31;;;;;;;;;30.50;30.50;;;;;11.89;74.97;101553.34;4859504;29;11814;-87
2021/09/05 03:03:26;;;;;;;;;35.00;33.50;;;;;12.00;74.66;101549.13;4855824;29;11411;-87
2021/09/05 03:06:22;;;;;;;;;43.50;35.25;;;;;12.00;74.54;101559.41;4858852;29;11675;-86
2021/09/05 03:09:17;;;;;;;;;38.00;33.50;;;;;11.88;74.61;101560.00;4859962;29;11742;-86
2021/09/05 03:12:13;;;;;;;;;40.50;37.00;;;;;11.99;74.05;101566.91;4847287;29;11708;-86
2021/09/05 03:15:09;;;;;;;;;29.50;29.00;;;;;12.04;74.34;101565.94;4841817;29;11715;-86
2021/09/05 03:18:05;;;;;;;;;39.75;36.75;;;;;12.08;73.80;101567.78;4841978;29;11431;-87
2021/09/05 03:21:00;;;;;;;;;42.50;38.25;;;;;12.18;72.32;101570.25;4850589;29;11703;-86
2021/09/05 03:23:56;;;;;;;;;47.25;38.75;;;;;12.21;72.24;101574.34;4862795;29;11693;-86
2021/09/05 03:26:52;;;;;;;;;42.50;38.00;;;;;12.26;72.12;101574.19;4852049;29;11772;-85
2021/09/05 03:29:48;;;;;;;;;36.75;35.50;;;;;12.31;72.34;101579.59;4848276;29;11700;-85
2021/09/05 03:32:44;;;;;;;;;37.25;36.00;;;;;12.40;71.65;101587.94;4845698;29;11686;-86
2021/09/05 03:35:39;;;;;;;;;37.75;36.75;;;;;12.41;71.29;101595.94;4845302;29;11823;-86
2021/09/05 03:38:35;;;;;;;;;42.50;38.50;;;;;12.29;72.42;101592.97;4833262;29;11696;-87
2021/09/05 03:41:30;;;;;;;;;50.25;44.00;;;;;12.31;72.61;101596.25;4849212;29;11685;-85
2021/09/05 03:44:26;;;;;;;;;41.75;37.75;;;;;12.46;72.68;101598.59;4850052;29;11706;-86
2021/09/05 03:47:23;;;;;;;;;44.75;39.50;;;;;12.38;72.51;101602.16;4850151;29;11750;-87
2021/09/05 03:50:19;;;;;;;;;42.25;38.50;;;;;12.44;72.58;101614.75;4848806;29;11851;-85
2021/09/05 03:53:15;;;;;;;;;42.25;38.25;;;;;12.51;72.50;101606.78;4849485;29;11684;-86
2021/09/05 03:56:11;;;;;;;;;51.50;44.00;;;;;12.57;71.74;101604.66;4862109;29;11673;-85
2021/09/05 03:59:07;;;;;;;;;50.75;41.75;;;;;12.71;71.70;101613.66;4866151;29;11803;-80
2021/09/05 04:02:02;;;;;;;;;38.75;37.00;;;;;12.87;71.26;101610.44;4860858;29;11688;-79
2021/09/05 04:04:58;;;;;;;;;30.75;30.75;;;;;12.95;68.02;101610.44;4861648;29;11718;-79
2021/09/05 04:11:01;;;;;;;;;23.75;21.75;;;;;13.40;66.96;101614.91;4860726;29;10924;-79
2021/09/05 04:13:56;;;;;;;;;27.50;27.50;;;;;13.47;67.31;101618.84;4831312;29;10785;-79
2021/09/05 04:16:52;;;;;;;;;26.25;24.75;;;;;13.69;66.45;101623.38;4843198;29;10759;-78
2021/09/05 04:19:47;;;;;;;;;30.50;30.50;;;;;13.82;66.38;101621.56;4832900;29;10659;-79
2021/09/05 04:22:15;;;;;;;;;28.50;28.50;;;;;13.87;66.10;101621.38;4853399;29;10696;-79
2021/09/05 04:25:12;;;;;;;;;30.50;27.50;;;;;14.04;65.01;101628.88;4865249;29;10717;-79
2021/09/05 04:28:07;;;;;;;;;26.00;26.00;;;;;14.13;65.11;101624.94;4842892;29;10650;-78
2021/09/05 04:31:03;;;;;;;;;21.50;21.00;;;;;14.19;64.21;101629.16;4830096;29;10288;-79
2021/09/05 04:33:58;;;;;;;;;15.00;14.00;;;;;14.31;62.42;101627.63;4841979;29;10292;-78
2021/09/05 04:36:54;;;;;;;;;13.25;10.25;;;;;14.40;60.77;101642.31;4849206;29;9983;-78
2021/09/05 04:39:52;;;;;;;;;13.00;13.00;;;;;14.58;61.04;101645.91;4855006;29;9642;-78
2021/09/05 04:42:48;;;;;;;;;13.00;12.50;;;;;14.68;62.07;101646.31;4841460;29;9749;-79
2021/09/05 04:45:43;;;;;;;;;7.00;7.00;;;;;14.79;60.33;101646.75;4839824;29;9679;-79
2021/09/05 04:48:40;;;;;;;;;7.67;7.67;;;;;14.78;58.86;101653.47;4846621;29;9528;-79
2021/09/05 04:51:36;;;;;;;;;7.67;7.67;;;;;14.99;59.45;101659.09;4856824;29;9276;-78
2021/09/05 04:54:35;;;;;;;;;8.67;7.33;;;;;15.09;59.12;101661.47;4847617;29;9372;-79
2021/09/05 04:57:30;;;;;;;;;6.67;6.67;;;;;15.16;57.45;101652.59;4860751;29;9360;-80
2021/09/05 05:00:26;;;;;;;;;10.00;10.00;;;;;14.90;56.14;101659.16;4871236;29;9368;-79
2021/09/05 05:03:21;;;;;;;;;7.33;7.33;;;;;14.99;56.21;101664.66;4858841;29;9401;-79
2021/09/05 05:06:17;;;;;;;;;9.33;8.67;;;;;15.18;56.41;101664.19;4843198;29;9385;-78
2021/09/05 05:09:15;;;;;;;;;8.00;8.00;;;;;15.33;56.38;101671.16;4859504;29;10043;-79
2021/09/05 05:12:12;;;;;;;;;8.67;8.67;;;;;15.45;55.23;101676.81;4863605;29;9286;-79
2021/09/05 05:15:08;;;;;;;;;9.33;9.33;;;;;15.49;54.33;101680.56;4871701;29;9312;-79
2021/09/05 05:18:04;;;;;;;;;6.00;6.00;;;;;15.69;54.77;101682.53;4848963;29;9288;-78
2021/09/05 05:20:59;;;;;;;;;11.00;11.00;;;;;15.74;54.66;101682.31;4842758;29;9201;-78
2021/09/05 05:23:55;;;;;;;;;8.00;8.00;;;;;15.85;53.84;101682.72;4859628;29;9380;-79
2021/09/05 05:26:51;;;;;;;;;12.00;9.00;;;;;16.03;53.49;101684.19;4847438;29;10018;-80
2021/09/05 05:29:47;;;;;;;;;7.00;7.00;;;;;16.10;51.83;101689.19;4848425;29;10046;-79
2021/09/05 05:32:42;;;;;;;;;13.00;13.00;;;;;16.19;52.46;101687.13;4842021;29;9117;-79
2021/09/05 05:35:38;;;;;;;;;10.67;10.67;;;;;16.30;50.67;101682.72;4841717;29;9061;-79
2021/09/05 05:38:34;;;;;;;;;7.25;7.25;;;;;16.39;50.24;101691.00;4841636;29;9096;-79
2021/09/05 05:41:29;;;;;;;;;9.33;9.00;;;;;16.55;50.16;101686.38;4858329;29;8908;-79
2021/09/05 05:44:25;;;;;;;;;8.50;8.50;;;;;16.74;49.83;101680.25;4851652;29;8958;-80
2021/09/05 05:47:20;;;;;;;;;10.67;10.67;;;;;16.78;48.72;101681.19;4852544;29;8909;-80
2021/09/05 05:50:16;;;;;;;;;10.00;10.00;;;;;16.79;48.45;101682.84;4861873;29;8971;-80
2021/09/05 05:53:12;;;;;;;;;27.33;17.00;;;;;17.15;48.33;101681.97;4878637;29;8967;-84
2021/09/05 05:56:07;;;;;;;;;7.25;7.00;;;;;17.25;47.06;101677.88;4840005;29;8952;-84
2021/09/05 05:59:04;;;;;;;;;3.50;3.50;;;;;17.35;45.34;101679.38;4856018;29;8886;-86
2021/09/05 06:02:00;;;;;;;;;5.00;5.00;;;;;17.54;45.79;101679.56;4860910;29;8883;-81
2021/09/05 06:04:55;;;;;;;;;3.00;3.00;;;;;17.80;45.23;101690.34;4849560;29;9628;-82
2021/09/05 06:07:51;;;;;;;;;3.00;3.00;;;;;17.89;44.02;101687.41;4850396;29;8870;-82
2021/09/05 06:10:47;;;;;;;;;3.00;2.00;;;;;18.19;43.88;101685.03;4862043;29;8889;-84
2021/09/05 06:13:46;;;;;;;;;3.75;3.75;;;;;18.11;42.88;101688.81;4859636;29;9786;-81
2021/09/05 06:16:42;;;;;;;;;3.50;3.50;;;;;17.94;42.19;101696.34;4852350;29;8888;-86
2021/09/05 06:19:38;;;;;;;;;3.00;2.25;;;;;17.99;42.63;101698.88;4853816;29;8885;-82
2021/09/05 06:22:34;;;;;;;;;1.00;1.00;;;;;18.10;41.42;101695.59;4838795;29;8890;-83
2021/09/05 06:25:30;;;;;;;;;1.25;1.25;;;;;18.02;40.63;101697.38;4857817;29;8848;-84
2021/09/05 06:28:25;;;;;;;;;1.50;1.50;;;;;18.45;39.61;101702.13;4827118;29;8933;-83
2021/09/05 06:31:21;;;;;;;;;3.00;3.00;;;;;18.44;39.44;101705.28;4825107;29;8878;-83
2021/09/05 06:34:16;;;;;;;;;2.00;2.00;;;;;18.66;38.98;101710.31;4826321;29;8886;-83
2021/09/05 06:37:12;;;;;;;;;3.00;3.00;;;;;18.68;38.18;101710.75;4857666;29;9042;-83
2021/09/05 06:40:09;;;;;;;;;3.00;3.00;;;;;18.82;37.84;101710.31;4841929;29;9730;-88
2021/09/05 06:43:05;;;;;;;;;3.00;3.00;;;;;19.03;38.66;101722.03;4851646;29;9642;-83
2021/09/05 06:46:00;;;;;;;;;2.25;2.25;;;;;19.02;38.87;101723.22;4839878;29;9091;-84
2021/09/05 06:48:56;;;;;;;;;3.00;3.00;;;;;18.95;37.95;101731.47;4832734;29;8853;-85
2021/09/05 06:51:51;;;;;;;;;2.00;2.00;;;;;19.02;37.12;101726.03;4846897;29;8967;-83
2021/09/05 06:54:47;;;;;;;;;2.00;2.00;;;;;18.95;36.20;101734.25;4854800;29;8861;-85
2021/09/05 06:57:42;;;;;;;;;0.50;0.50;;;;;19.12;36.29;101736.66;4854902;29;8867;-83
2021/09/05 07:00:38;;;;;;;;;2.00;2.00;;;;;18.87;35.45;101726.84;4842540;29;8895;-82
2021/09/05 07:03:33;;;;;;;;;1.00;1.00;;;;;19.54;36.09;101729.59;4853703;29;8873;-86
2021/09/05 07:06:29;;;;;;;;;0.00;0.00;;;;;19.61;35.68;101741.81;4872613;29;8870;-86
2021/09/05 07:09:25;;;;;;;;;1.25;1.25;;;;;19.77;35.88;101743.75;4850098;29;8884;-85
2021/09/05 07:12:20;;;;;;;;;1.75;1.75;;;;;19.93;35.89;101747.31;4851221;29;8881;-84
2021/09/05 07:15:16;;;;;;;;;1.00;1.00;;;;;20.21;35.35;101745.09;4856756;29;8927;-84
2021/09/05 07:18:12;;;;;;;;;2.00;2.00;;;;;20.07;35.27;101738.38;4875573;29;8887;-87
2021/09/05 07:21:07;;;;;;;;;2.75;2.75;;;;;20.28;34.75;101741.59;4863616;29;8893;-85
2021/09/05 07:24:03;;;;;;;;;1.00;1.00;;;;;20.37;34.33;101749.78;4863316;29;8959;-85
2021/09/05 07:26:59;;;;;;;;;1.75;1.75;;;;;20.50;34.00;101745.66;4860560;29;8863;-86
2021/09/05 07:29:55;;;;;;;;;1.25;1.25;;;;;20.64;33.35;101743.13;4859748;29;8894;-87
2021/09/05 07:32:50;;;;;;;;;1.75;1.75;;;;;20.19;32.16;101744.66;4864919;29;9010;-84
2021/09/05 07:35:46;;;;;;;;;1.00;1.00;;;;;20.34;32.46;101748.56;4861125;29;8871;-87
2021/09/05 07:38:41;;;;;;;;;0.00;0.00;;;;;20.79;32.02;101747.00;4880120;29;8868;-81
2021/09/05 07:41:37;;;;;;;;;2.00;2.00;;;;;20.87;32.33;101745.13;4862329;29;8860;-83
2021/09/05 07:44:33;;;;;;;;;0.00;0.00;;;;;20.45;30.66;101745.97;4874287;29;8886;-85
2021/09/05 07:47:28;;;;;;;;;1.25;1.25;;;;;20.61;32.03;101740.22;4862877;29;8899;-85
2021/09/05 07:50:24;;;;;;;;;3.00;3.00;;;;;20.99;32.08;101747.72;4859199;29;8905;-87
2021/09/05 07:53:19;;;;;;;;;3.00;3.00;;;;;21.02;31.25;101742.16;4857270;29;8901;-86
2021/09/05 07:56:15;;;;;;;;;4.25;4.25;;;;;20.90;31.63;101747.97;4861539;29;8878;-86
2021/09/05 07:59:11;;;;;;;;;1.75;1.75;;;;;20.98;29.95;101751.72;4850465;29;8857;-87
2021/09/05 08:02:06;;;;;;;;;2.25;2.25;;;;;21.33;30.21;101757.13;4864863;29;8876;-89
2021/09/05 08:05:02;;;;;;;;;2.00;2.00;;;;;21.35;30.80;101751.94;4867406;29;8872;-84
2021/09/05 08:07:58;;;;;;;;;2.00;2.00;;;;;21.62;30.27;101753.53;4863639;29;9661;-86
2021/09/05 08:10:53;;;;;;;;;1.50;1.50;;;;;21.79;30.60;101748.53;4864025;29;8893;-92
2021/09/05 08:13:49;;;;;;;;;0.00;0.00;;;;;21.78;29.76;101744.91;4867138;29;8880;-88
2021/09/05 08:16:45;;;;;;;;;1.00;1.00;;;;;21.62;29.59;101747.91;4846622;29;8863;-87
2021/09/05 08:19:40;;;;;;;;;0.80;0.80;;;;;21.81;28.80;101743.31;4867858;29;8864;-85
2021/09/05 08:22:36;;;;;;;;;0.00;0.00;;;;;22.18;28.83;101743.41;4869693;29;8871;-87
2021/09/05 08:25:32;;;;;;;;;0.00;0.00;;;;;21.88;28.51;101738.59;4860891;29;9784;-81
2021/09/05 08:28:28;;;;;;;;;2.00;2.00;;;;;21.74;28.70;101740.41;4857305;29;8909;-91
2021/09/05 08:31:24;;;;;;;;;2.40;2.40;;;;;21.24;28.69;101736.84;4853325;29;8910;-87
2021/09/05 08:34:19;;;;;;;;;1.40;1.40;;;;;21.58;28.86;101738.59;4844978;29;9589;-86
2021/09/05 08:37:15;;;;;;;;;0.80;0.80;;;;;21.43;27.77;101736.78;4858950;29;8893;-86
2021/09/05 08:40:12;;;;;;;;;0.80;0.80;;;;;21.64;28.41;101736.28;4850775;29;8862;-87
2021/09/05 08:43:09;;;;;;;;;2.80;2.80;;;;;21.58;29.53;101749.84;4849353;29;9017;-85
2021/09/05 08:46:05;;;;;;;;;1.20;1.20;;;;;21.61;29.42;101743.44;4861646;29;8906;-85
2021/09/05 08:49:04;;;;;;;;;5.00;5.00;;;;;21.67;29.69;101751.56;4849088;29;8886;-85
2021/09/05 08:52:00;;;;;;;;;5.25;5.25;;;;;21.26;28.50;101751.38;4861165;29;8908;-89
2021/09/05 08:54:56;;;;;;;;;12.25;11.50;;;;;21.10;27.85;101745.91;4860645;29;8991;-88
2021/09/05 08:57:52;;;;;;;;;9.50;9.50;;;;;21.73;27.93;101738.78;4842832;29;8978;-89
2021/09/05 09:00:49;;;;;;;;;5.00;5.00;;;;;21.82;28.34;101748.56;4843352;29;8916;-91
2021/09/05 09:03:45;;;;;;;;;2.40;2.40;;;;;22.02;27.61;101739.97;4847467;29;8862;-86
2021/09/05 09:06:41;;;;;;;;;1.80;1.80;;;;;21.85;27.86;101744.16;4853458;29;8883;-88
2021/09/05 09:09:42;;;;;;;;;1.20;1.20;;;;;21.63;27.55;101741.09;4859897;29;8858;-84
2021/09/05 09:12:43;;;;;;;;;1.00;1.00;;;;;21.97;28.26;101734.66;4849299;29;9660;-85
2021/09/05 09:15:40;;;;;;;;;2.20;2.20;;;;;22.33;29.14;101730.28;4860896;29;8878;-86
2021/09/05 09:18:39;;;;;;;;;0.60;0.60;;;;;22.05;28.57;101742.81;4841718;29;8872;-89
2021/09/05 09:21:39;;;;;;;;;2.40;1.40;;;;;22.68;27.58;101743.91;4853863;29;8963;-83
2021/09/05 09:24:42;;;;;;;;;1.80;1.80;;;;;23.16;27.25;101739.13;4860641;29;8875;-83
2021/09/05 09:27:38;;;;;;;;;2.00;2.00;;;;;23.43;27.57;101731.22;4871246;29;8936;-85
2021/09/05 09:30:34;;;;;;;;;1.00;1.00;;;;;23.76;26.24;101737.88;4871274;29;8904;-82
2021/09/05 09:33:30;;;;;;;;;4.60;4.00;;;;;23.88;25.97;101743.19;4861610;29;8884;-85
2021/09/05 09:36:28;;;;;;;;;8.20;8.20;;;;;23.43;26.87;101745.34;4848249;29;8889;-82
2021/09/05 09:39:25;;;;;;;;;11.80;11.80;;;;;22.98;27.20;101750.25;4871158;29;8870;-82
2021/09/05 09:42:35;;;;;;;;;4.00;4.00;;;;;23.64;26.34;101741.06;4860236;29;8882;-84
2021/09/05 09:45:30;;;;;;;;;4.00;4.00;;;;;23.69;26.02;101749.13;4847894;29;8870;-81
2021/09/05 09:48:27;;;;;;;;;3.60;3.60;;;;;23.79;26.56;101746.38;4860819;29;8890;-82
2021/09/05 09:51:23;;;;;;;;;1.00;1.00;;;;;23.82;26.24;101756.88;4859523;29;8859;-85
2021/09/05 09:54:19;;;;;;;;;2.00;2.00;;;;;23.64;25.77;101753.16;4859917;29;8902;-83
2021/09/05 09:57:15;;;;;;;;;3.80;3.80;;;;;23.47;26.67;101746.19;4849187;29;8874;-84
2021/09/05 10:00:11;;;;;;;;;5.00;5.00;;;;;23.42;26.46;101749.38;4860606;29;9629;-83
2021/09/05 10:03:10;;;;;;;;;2.00;2.00;;;;;24.07;26.14;101751.31;4859175;29;8901;-84
2021/09/05 10:06:07;;;;;;;;;3.40;3.40;;;;;24.32;24.92;101759.09;4861587;29;9609;-83
2021/09/05 10:09:05;;;;;;;;;3.00;3.00;;;;;24.48;24.61;101750.28;4870723;29;8866;-84
2021/09/05 10:12:00;;;;;;;;;2.00;2.00;;;;;24.58;24.52;101746.66;4858960;29;8897;-84
2021/09/05 10:14:57;;;;;;;;;4.40;4.40;;;;;24.64;25.90;101754.34;4860146;29;8866;-84
2021/09/05 10:17:53;;;;;;;;;0.80;0.80;;;;;25.00;24.54;101754.34;4861258;29;8878;-82
2021/09/05 10:20:49;;;;;;;;;0.20;0.20;;;;;25.07;23.17;101762.03;4859162;29;9037;-84
2021/09/05 10:23:51;;;;;;;;;1.80;1.80;;;;;25.49;23.59;101752.69;4842557;29;8871;-84
2021/09/05 10:27:00;;;;;;;;;1.00;1.00;;;;;25.87;23.77;101753.81;4859262;29;8942;-82
2021/09/05 10:30:07;;;;;;;;;3.80;3.80;;;;;25.59;23.06;101760.34;4861741;29;8870;-84
2021/09/05 10:33:03;;;;;;;;;1.60;1.60;;;;;25.59;22.60;101757.50;4851238;29;8938;-85
2021/09/05 10:36:26;;;;;;;;;0.60;0.60;;;;;25.52;23.29;101758.34;4852016;29;8906;-83
2021/09/05 10:39:22;;;;;;;;;1.80;1.80;;;;;25.49;22.99;101756.34;4863302;29;8881;-88
2021/09/05 10:42:24;;;;;;;;;2.40;2.40;;;;;26.10;23.43;101755.34;4862374;29;8886;-84
2021/09/05 10:45:21;;;;;;;;;0.80;0.80;;;;;24.48;23.41;101748.25;4863242;29;8876;-82
2021/09/05 10:48:31;;;;;;;;;2.20;2.20;;;;;24.25;23.39;101736.47;4862172;29;8897;-82
2021/09/05 10:51:30;;;;;;;;;3.40;3.40;;;;;24.27;24.16;101739.69;4850805;29;8886;-82
2021/09/05 10:54:27;;;;;;;;;5.20;5.20;;;;;24.91;24.15;101739.78;4862407;29;8870;-83
2021/09/05 10:57:42;;;;;;;;;4.40;4.40;;;;;25.36;23.15;101728.84;4863264;29;8884;-84
2021/09/05 11:01:04;;;;;;;;;3.20;3.20;;;;;26.11;22.52;101748.44;4862895;29;8926;-82
2021/09/05 11:04:15;;;;;;;;;1.20;1.20;;;;;26.31;22.01;101727.69;4863204;29;8946;-84
2021/09/05 11:07:29;;;;;;;;;2.20;2.20;;;;;25.79;23.38;101738.06;4850327;29;8885;-84
2021/09/05 11:10:47;;;;;;;;;11.20;5.60;;;;;25.25;22.79;101733.75;4862844;29;9686;-84
2021/09/05 11:13:49;;;;;;;;;1.80;1.80;;;;;24.45;23.60;101743.38;4850328;29;8896;-84
2021/09/05 11:16:45;;;;;;;;;3.00;3.00;;;;;23.67;25.65;101748.72;4862746;29;8870;-83
2021/09/05 11:19:46;;;;;;;;;3.00;3.00;;;;;24.11;25.58;101738.03;4862801;29;8866;-85
2021/09/05 11:22:47;;;;;;;;;3.00;3.00;;;;;24.99;24.27;101741.41;4862449;29;8894;-82
2021/09/05 11:25:42;;;;;;;;;4.40;4.40;;;;;25.42;23.39;101730.06;4862419;29;8988;-86
2021/09/05 11:28:38;;;;;;;;;3.00;3.00;;;;;25.92;23.12;101738.44;4862190;29;8877;-82
2021/09/05 11:31:46;;;;;;;;;10.00;9.80;;;;;25.96;22.59;101734.34;4849121;29;8870;-82
2021/09/05 11:34:53;;;;;;;;;7.20;7.20;;;;;25.51;22.26;101733.25;4859556;29;8866;-88
2021/09/05 11:37:53;;;;;;;;;2.40;2.40;;;;;25.05;22.79;101734.16;4844678;29;8901;-85
2021/09/05 11:40:54;;;;;;;;;4.60;4.60;;;;;24.66;23.79;101731.28;4843430;29;8904;-85
2021/09/05 11:43:52;;;;;;;;;4.00;4.00;;;;;25.26;22.49;101732.53;4843716;29;8880;-83
2021/09/05 11:46:48;;;;;;;;;8.20;8.20;;;;;25.72;23.56;101735.25;4844474;29;8865;-85
2021/09/05 11:49:52;;;;;;;;;2.20;2.20;;;;;25.54;22.26;101721.13;4843513;29;8880;-84
2021/09/05 11:52:47;;;;;;;;;0.60;0.60;;;;;25.84;22.91;101731.16;4831314;29;8849;-84
2021/09/05 11:55:51;;;;;;;;;2.60;2.60;;;;;25.17;22.80;101730.09;4842562;29;9000;-83
2021/09/05 11:58:46;;;;;;;;;3.40;3.40;;;;;25.82;22.82;101720.22;4844394;29;8987;-83
2021/09/05 12:01:50;;;;;;;;;3.20;3.20;;;;;25.87;22.83;101725.47;4843442;29;8884;-86
2021/09/05 12:04:46;;;;;;;;;1.20;1.20;;;;;26.28;23.07;101727.69;4842826;29;8933;-86
2021/09/05 12:07:42;;;;;;;;;2.60;2.60;;;;;26.41;21.95;101713.88;4842643;29;8912;-83
2021/09/05 12:10:39;;;;;;;;;5.40;4.80;;;;;26.48;22.06;101708.16;4844429;29;8952;-85
2021/09/05 12:13:56;;;;;;;;;0.20;0.20;;;;;25.94;22.44;101708.44;4844483;29;8881;-85
2021/09/05 12:16:31;;;;;;;;;0.80;0.80;;;;;26.26;21.40;101708.25;4844014;29;8884;-86
2021/09/05 12:19:26;;;;;;;;;2.60;2.60;;;;;26.84;21.36;101712.34;4843204;29;8960;-83
2021/09/05 12:22:22;;;;;;;;;3.00;3.00;;;;;27.15;21.34;101723.84;4830749;29;8963;-85
2021/09/05 12:25:33;;;;;;;;;0.20;0.20;;;;;27.32;20.37;101717.16;4842104;29;8918;-85
2021/09/05 12:28:31;;;;;;;;;1.60;1.60;;;;;27.55;21.35;101727.06;4843133;29;8928;-84
2021/09/05 12:31:47;;;;;;;;;0.00;0.00;;;;;27.06;21.14;101724.31;4843173;29;9684;-84
2021/09/05 12:34:45;;;;;;;;;0.60;0.60;;;;;26.13;21.92;101729.81;4843229;29;8861;-84
2021/09/05 12:37:40;;;;;;;;;0.00;0.00;;;;;26.71;22.24;101719.72;4848668;29;8883;-85
2021/09/05 12:40:40;;;;;;;;;1.00;1.00;;;;;27.14;21.66;101725.03;4861284;29;8870;-84
2021/09/05 12:43:49;;;;;;;;;1.40;1.40;;;;;27.67;21.68;101730.19;4861447;29;8879;-85
2021/09/05 12:46:48;;;;;;;;;0.00;0.00;;;;;27.75;21.05;101724.41;4846326;29;8844;-88
2021/09/05 12:49:44;;;;;;;;;1.00;1.00;;;;;27.62;20.44;101727.78;4856512;29;8924;-85
2021/09/05 12:52:40;;;;;;;;;1.40;1.40;;;;;27.79;20.84;101725.97;4850541;29;8883;-85
2021/09/05 12:55:35;;;;;;;;;0.20;0.20;;;;;28.03;21.30;101729.72;4843342;29;8892;-85
2021/09/05 12:58:31;;;;;;;;;3.00;3.00;;;;;27.68;20.82;101723.28;4853667;29;8856;-84
2021/09/05 13:01:28;;;;;;;;;0.80;0.80;;;;;27.63;21.23;101726.56;4865926;29;8870;-84
2021/09/05 13:04:24;;;;;;;;;1.20;1.20;;;;;27.76;21.21;101726.00;4859898;29;8866;-83
2021/09/05 13:07:20;;;;;;;;;2.00;2.00;;;;;27.65;20.85;101741.13;4858316;29;8875;-83
2021/09/05 13:10:15;;;;;;;;;2.60;2.60;;;;;27.95;20.58;101728.22;4858305;29;8866;-80
2021/09/05 13:13:11;;;;;;;;;2.60;2.60;;;;;27.51;20.52;101723.44;4867574;29;8913;-85
2021/09/05 13:16:07;;;;;;;;;0.60;0.60;;;;;27.00;21.05;101728.00;4859021;29;8870;-81
2021/09/05 13:19:02;;;;;;;;;0.80;0.80;;;;;26.59;21.16;101720.22;4842183;29;8869;-83
2021/09/05 13:21:58;;;;;;;;;4.60;4.40;;;;;26.50;21.60;101734.88;4849169;29;8889;-83
2021/09/05 13:24:53;;;;;;;;;6.40;6.00;;;;;26.97;21.64;101734.50;4839940;29;8897;-82
2021/09/05 13:27:49;;;;;;;;;3.40;3.00;;;;;26.18;21.43;101743.56;4860528;29;8921;-82
2021/09/05 13:30:46;;;;;;;;;5.40;5.40;;;;;25.53;23.53;101742.16;4852346;29;8870;-82
2021/09/05 13:33:28;;;;;;;;;8.80;8.80;;;;;25.25;23.40;101736.56;4849146;29;10220;-81
2021/09/05 13:36:25;;;;;;;;;18.40;18.40;;;;;25.52;23.44;101741.34;4854625;29;8867;-81
2021/09/05 13:39:21;;;;;;;;;5.80;5.80;;;;;25.68;23.42;101740.88;4841740;29;8916;-81
2021/09/05 13:42:16;;;;;;;;;9.40;8.40;;;;;25.47;23.88;101730.47;4841269;29;8890;-81
2021/09/05 13:45:12;;;;;;;;;8.60;8.60;;;;;24.95;23.98;101747.06;4828102;29;8873;-80